Time;durP1;ratioP1;P1;durP2;ratioP2;P2;SDS_P1;SDS_P2;PMS_P1;PMS_P2;Temp;Humidity;BMP_temperature;BMP_pressure;BME280_temperature;BME280_humidity;BME280_pressure;Samples;Min_cycle;Max_cycle;Signal;HPM_P1;HPM_P2
2022/01/08 00:01:19;;;;;;;8.35;4.97;;;0.80;99.90;;;;;;5096945;28;20030;-68
2022/01/08 00:03:48;;;;;;;10.45;4.45;;;0.80;99.90;;;;;;5096191;28;20424;-68
2022/01/08 00:06:16;;;;;;;7.70;4.50;;;0.80;99.90;;;;;;5096077;28;20039;-68
2022/01/08 00:08:43;;;;;;;10.02;4.45;;;0.80;99.90;;;;;;5096194;28;20021;-68
2022/01/08 00:11:17;;;;;;;7.75;4.28;;;0.80;99.90;;;;;;5096172;28;20073;-68
2022/01/08 00:13:45;;;;;;;8.10;4.22;;;0.70;99.90;;;;;;5096103;28;20024;-68
2022/01/08 00:16:13;;;;;;;7.18;3.47;;;0.80;99.90;;;;;;5096114;28;20048;-68
2022/01/08 00:18:40;;;;;;;8.27;3.90;;;0.80;99.90;;;;;;5096070;28;20141;-68
2022/01/08 00:21:07;;;;;;;9.88;4.93;;;0.80;99.90;;;;;;5097710;28;20020;-68
2022/01/08 00:23:35;;;;;;;10.20;5.72;;;0.80;99.90;;;;;;5096852;28;20423;-68
2022/01/08 00:26:04;;;;;;;10.63;5.13;;;0.70;99.90;;;;;;5062394;28;20077;-68
2022/01/08 00:28:31;;;;;;;8.85;5.35;;;0.80;99.90;;;;;;5096952;28;20053;-68
2022/01/08 00:30:59;;;;;;;8.60;4.93;;;0.80;99.90;;;;;;5078943;28;20513;-68
2022/01/08 00:33:27;;;;;;;7.95;4.75;;;0.80;99.90;;;;;;5097479;28;20016;-68
2022/01/08 00:35:54;;;;;;;9.90;4.80;;;0.80;99.90;;;;;;5100708;28;20024;-68
2022/01/08 00:38:21;;;;;;;10.05;5.50;;;0.80;99.90;;;;;;5100365;28;20082;-68
2022/01/08 00:40:49;;;;;;;13.75;6.05;;;0.80;99.90;;;;;;5100059;28;20418;-68
2022/01/08 00:43:16;;;;;;;9.23;5.18;;;0.80;99.90;;;;;;5099429;28;20028;-68
2022/01/08 00:45:43;;;;;;;11.43;5.50;;;0.80;99.90;;;;;;5100152;28;20022;-68
2022/01/08 00:48:10;;;;;;;9.95;5.07;;;0.80;99.90;;;;;;5099355;28;20103;-68
2022/01/08 00:50:38;;;;;;;10.77;5.03;;;0.90;99.90;;;;;;5081271;28;20020;-68
2022/01/08 00:53:05;;;;;;;10.77;5.82;;;0.80;99.90;;;;;;5099294;28;20016;-68
2022/01/08 00:55:32;;;;;;;17.00;7.47;;;0.90;99.90;;;;;;5099899;28;20467;-68
2022/01/08 00:58:00;;;;;;;23.25;9.82;;;0.90;99.90;;;;;;5099671;28;20024;-68
2022/01/08 01:00:27;;;;;;;47.47;15.77;;;0.90;99.90;;;;;;5099140;28;20024;-68
2022/01/08 01:02:54;;;;;;;31.52;13.77;;;0.90;99.90;;;;;;5100438;28;20016;-68
2022/01/08 01:05:22;;;;;;;16.92;8.25;;;0.90;99.90;;;;;;5082168;28;20059;-68
2022/01/08 01:07:50;;;;;;;16.40;7.82;;;0.90;99.90;;;;;;5100348;28;20035;-68
2022/01/08 01:10:18;;;;;;;13.50;8.55;;;0.90;99.90;;;;;;5099789;28;20024;-68
2022/01/08 01:12:45;;;;;;;16.23;7.93;;;0.90;99.90;;;;;;5100358;28;20300;-68
2022/01/08 01:15:20;;;;;;;17.60;8.07;;;0.90;99.90;;;;;;5078219;28;20343;-68
2022/01/08 01:17:48;;;;;;;22.50;9.02;;;0.90;99.90;;;;;;5080273;28;20301;-68
2022/01/08 01:20:19;;;;;;;23.55;8.30;;;0.90;99.90;;;;;;5079384;28;20290;-68
2022/01/08 01:23:05;;;;;;;16.65;7.65;;;1.00;99.90;;;;;;5078692;28;20349;-68
2022/01/08 01:25:40;;;;;;;18.30;8.40;;;0.90;99.90;;;;;;5079056;28;20078;-68
2022/01/08 01:28:22;;;;;;;13.13;8.73;;;0.90;99.90;;;;;;5078115;28;20388;-68
2022/01/08 01:41:08;;;;;;;15.07;7.57;;;0.90;99.90;;;;;;5078237;28;20029;-68
2022/01/08 01:42:20;;;;;;;19.20;10.32;;;1.00;99.90;;;;;;5078000;28;20328;-68
2022/01/08 01:47:35;;;;;;;27.40;10.35;;;1.00;99.90;;;;;;5079095;28;20027;-68
2022/01/08 01:50:06;;;;;;;23.38;9.52;;;1.10;99.90;;;;;;5079230;28;20020;-68
2022/01/08 01:52:33;;;;;;;24.17;10.85;;;1.10;99.90;;;;;;5078804;28;20484;-68
2022/01/08 01:55:01;;;;;;;21.73;11.00;;;1.10;99.90;;;;;;5079245;28;20024;-68
2022/01/08 01:57:28;;;;;;;23.45;10.93;;;1.10;99.90;;;;;;5078617;28;20028;-68
2022/01/08 01:59:57;;;;;;;23.67;11.27;;;1.10;99.90;;;;;;5077722;28;20025;-68
2022/01/08 02:02:25;;;;;;;28.48;12.38;;;1.10;99.90;;;;;;5078693;28;20043;-68
2022/01/08 02:04:52;;;;;;;29.55;10.52;;;1.10;99.90;;;;;;5078234;28;20017;-68
2022/01/08 02:07:21;;;;;;;26.58;12.50;;;1.10;99.90;;;;;;5077485;28;20041;-68
2022/01/08 02:09:48;;;;;;;23.60;12.27;;;1.10;99.90;;;;;;5076356;28;20036;-68
2022/01/08 02:12:18;;;;;;;25.65;12.60;;;1.20;99.90;;;;;;5076537;28;20070;-68
2022/01/08 02:14:47;;;;;;;26.33;11.63;;;1.20;99.90;;;;;;5080722;28;20151;-68
2022/01/08 02:17:14;;;;;;;21.85;10.57;;;1.20;99.90;;;;;;5097629;28;20020;-68
2022/01/08 02:19:43;;;;;;;24.02;12.07;;;1.20;99.90;;;;;;5098079;28;20012;-68
2022/01/08 02:22:15;;;;;;;23.05;12.25;;;1.20;99.90;;;;;;5097601;28;20024;-68
2022/01/08 02:24:45;;;;;;;24.17;12.68;;;1.20;99.90;;;;;;5097315;28;20027;-68
2022/01/08 02:27:13;;;;;;;23.25;12.45;;;1.20;99.90;;;;;;5080060;28;20028;-68
2022/01/08 02:29:41;;;;;;;27.73;13.50;;;1.20;99.90;;;;;;5098496;28;20415;-68
2022/01/08 02:32:11;;;;;;;27.77;12.40;;;1.20;99.90;;;;;;5098404;28;20044;-68
2022/01/08 02:34:40;;;;;;;28.45;11.60;;;1.20;99.90;;;;;;5080208;28;20419;-68
2022/01/08 02:37:08;;;;;;;26.98;12.35;;;1.20;99.90;;;;;;5098181;28;20020;-68
2022/01/08 02:39:42;;;;;;;25.83;13.00;;;1.20;99.90;;;;;;5080191;28;20025;-68
2022/01/08 02:42:12;;;;;;;23.27;11.63;;;1.20;99.90;;;;;;5098048;28;20053;-68
2022/01/08 02:44:45;;;;;;;31.33;12.43;;;1.20;99.90;;;;;;5098609;28;20074;-68
2022/01/08 02:47:17;;;;;;;24.13;12.27;;;1.20;99.90;;;;;;5079237;28;20020;-68
2022/01/08 02:49:44;;;;;;;21.27;11.13;;;1.20;99.90;;;;;;5096981;28;20056;-68
2022/01/08 02:52:11;;;;;;;24.45;12.30;;;1.20;99.90;;;;;;5097592;28;20040;-68
2022/01/08 02:54:38;;;;;;;22.33;10.88;;;1.30;99.90;;;;;;5097251;28;20020;-68
2022/01/08 02:57:05;;;;;;;27.85;12.80;;;1.30;99.90;;;;;;5097001;28;20118;-68
2022/01/08 02:59:33;;;;;;;23.40;11.95;;;1.30;99.90;;;;;;5096919;28;20055;-68
2022/01/08 03:02:01;;;;;;;37.78;14.30;;;1.20;99.90;;;;;;5079898;28;20084;-68
2022/01/08 03:04:28;;;;;;;25.33;12.68;;;1.30;99.90;;;;;;5097385;28;20161;-68
2022/01/08 03:06:55;;;;;;;31.67;14.18;;;1.30;99.90;;;;;;5096742;28;20319;-68
2022/01/08 03:09:23;;;;;;;25.92;11.90;;;1.30;99.90;;;;;;5097761;28;20020;-68
2022/01/08 03:11:50;;;;;;;30.55;15.65;;;1.40;99.90;;;;;;5079622;28;20028;-68
2022/01/08 03:14:17;;;;;;;31.88;15.77;;;1.40;99.90;;;;;;5097926;28;20024;-68
2022/01/08 03:16:45;;;;;;;33.40;15.23;;;1.40;99.90;;;;;;5097462;28;20036;-68
2022/01/08 03:19:14;;;;;;;36.00;16.65;;;1.40;99.90;;;;;;5097589;28;20019;-68
2022/01/08 03:21:45;;;;;;;28.20;13.70;;;1.40;99.90;;;;;;5097650;28;20042;-68
2022/01/08 03:24:16;;;;;;;37.72;16.13;;;1.40;99.90;;;;;;5097757;28;20020;-68
2022/01/08 03:26:44;;;;;;;36.10;15.88;;;1.40;99.90;;;;;;5097968;28;20407;-68
2022/01/08 03:29:12;;;;;;;30.92;12.73;;;1.40;99.90;;;;;;5078996;28;20114;-68
2022/01/08 03:31:39;;;;;;;34.92;17.15;;;1.40;99.90;;;;;;5096473;28;20339;-68
2022/01/08 03:34:06;;;;;;;44.30;18.02;;;1.40;99.90;;;;;;5097024;28;20012;-68
2022/01/08 03:36:33;;;;;;;38.85;16.55;;;1.40;99.90;;;;;;5096615;28;20024;-68
2022/01/08 03:39:01;;;;;;;38.88;16.35;;;1.40;99.90;;;;;;5096770;28;20024;-68
2022/01/08 03:41:28;;;;;;;41.25;16.63;;;1.40;99.90;;;;;;5078558;28;20074;-68
2022/01/08 03:43:56;;;;;;;33.25;16.23;;;1.40;99.90;;;;;;5096420;28;20028;-68
2022/01/08 03:46:27;;;;;;;39.70;18.13;;;1.40;99.90;;;;;;5096502;28;20016;-68
2022/01/08 03:51:27;;;;;;;33.63;16.10;;;1.40;99.90;;;;;;5096457;28;20024;-68
2022/01/08 03:53:54;;;;;;;36.35;16.55;;;1.40;99.90;;;;;;5079307;28;20027;-68
2022/01/08 03:56:21;;;;;;;39.47;17.58;;;1.40;99.90;;;;;;5097370;28;20020;-68
2022/01/08 03:58:49;;;;;;;36.17;16.95;;;1.40;99.90;;;;;;5079338;28;20038;-68
2022/01/08 04:01:17;;;;;;;35.80;16.45;;;1.40;99.90;;;;;;5079242;28;20032;-68
2022/01/08 04:03:44;;;;;;;35.03;16.33;;;1.40;99.90;;;;;;5097168;28;20438;-68
2022/01/08 04:06:11;;;;;;;32.03;14.68;;;1.40;99.90;;;;;;5097803;28;20024;-68
2022/01/08 04:08:39;;;;;;;36.47;15.45;;;1.40;99.90;;;;;;5079996;28;20077;-68
2022/01/08 04:11:06;;;;;;;30.92;14.18;;;1.40;99.90;;;;;;5100859;28;20027;-68
2022/01/08 04:13:37;;;;;;;32.50;15.98;;;1.50;99.90;;;;;;5081932;28;20073;-68
2022/01/08 04:16:13;;;;;;;27.75;13.85;;;1.50;99.90;;;;;;5099940;28;20036;-68
2022/01/08 04:18:41;;;;;;;30.88;16.35;;;1.50;99.90;;;;;;5100420;28;20017;-68
2022/01/08 04:23:56;;;;;;;31.55;15.18;;;1.40;99.90;;;;;;5100168;28;20085;-68
2022/01/08 04:26:24;;;;;;;30.85;14.32;;;1.40;99.90;;;;;;5100458;28;20058;-68
2022/01/08 04:28:56;;;;;;;33.72;16.10;;;1.40;99.90;;;;;;5099739;28;20411;-68
2022/01/08 04:31:27;;;;;;;36.33;15.88;;;1.30;99.90;;;;;;5099636;28;20032;-68
2022/01/08 04:33:54;;;;;;;39.85;16.20;;;1.30;99.90;;;;;;5099644;28;20469;-68
2022/01/08 04:36:22;;;;;;;34.67;15.82;;;1.30;99.90;;;;;;5100573;28;20027;-68
2022/01/08 04:38:50;;;;;;;39.80;17.13;;;1.20;99.90;;;;;;5100768;28;20087;-68
2022/01/08 04:41:17;;;;;;;45.05;17.17;;;1.20;99.90;;;;;;5100446;28;20027;-68
2022/01/08 04:43:44;;;;;;;36.28;16.20;;;1.20;99.90;;;;;;5082347;28;20024;-68
2022/01/08 04:46:12;;;;;;;34.50;14.65;;;1.10;99.90;;;;;;5082448;28;20070;-68
2022/01/08 04:48:39;;;;;;;30.65;15.52;;;1.10;99.90;;;;;;5100169;28;20324;-68
2022/01/08 04:51:06;;;;;;;35.20;15.35;;;1.20;99.90;;;;;;5082248;28;20119;-68
2022/01/08 04:53:34;;;;;;;32.33;15.40;;;1.20;99.90;;;;;;5082137;28;20074;-68
2022/01/08 04:56:02;;;;;;;26.65;11.43;;;1.20;99.90;;;;;;5099482;28;20365;-68
2022/01/08 04:58:29;;;;;;;32.60;14.07;;;1.30;99.90;;;;;;5081168;28;20028;-68
2022/01/08 05:00:56;;;;;;;38.75;17.45;;;1.30;99.90;;;;;;5099726;28;20016;-68
2022/01/08 05:03:24;;;;;;;37.20;14.32;;;1.30;99.90;;;;;;5099581;28;20311;-68
2022/01/08 05:05:52;;;;;;;29.42;15.25;;;1.30;99.90;;;;;;5099745;28;20051;-68
2022/01/08 05:08:20;;;;;;;35.25;14.73;;;1.20;99.90;;;;;;5099458;28;20020;-68
2022/01/08 05:10:47;;;;;;;32.47;14.55;;;1.30;99.90;;;;;;5098900;28;20059;-68
2022/01/08 05:13:14;;;;;;;29.08;12.40;;;1.30;99.90;;;;;;5098871;28;20042;-68
2022/01/08 05:15:42;;;;;;;33.10;15.35;;;1.20;99.90;;;;;;5098835;28;20036;-68
2022/01/08 05:18:11;;;;;;;35.88;14.68;;;1.20;99.90;;;;;;5099964;28;20046;-68
2022/01/08 05:20:41;;;;;;;37.20;15.25;;;1.20;99.90;;;;;;5099235;28;20484;-68
2022/01/08 05:23:09;;;;;;;31.35;15.45;;;1.10;99.90;;;;;;5099714;28;20035;-68
2022/01/08 05:25:36;;;;;;;37.88;17.20;;;1.00;99.90;;;;;;5099560;28;20370;-68
2022/01/08 05:28:05;;;;;;;37.17;16.55;;;1.00;99.90;;;;;;5081566;28;20115;-68
2022/01/08 05:30:33;;;;;;;29.23;13.80;;;1.00;99.90;;;;;;5081626;28;20028;-68
2022/01/08 05:33:00;;;;;;;36.05;13.23;;;1.10;99.90;;;;;;5081468;28;20025;-68
2022/01/08 05:35:29;;;;;;;35.22;17.05;;;1.10;99.90;;;;;;5099412;28;20016;-68
2022/01/08 05:37:57;;;;;;;35.53;16.27;;;1.10;99.90;;;;;;5080734;28;20106;-68
2022/01/08 05:40:24;;;;;;;37.13;16.35;;;1.10;99.90;;;;;;5098524;28;20048;-68
2022/01/08 05:42:52;;;;;;;40.28;17.20;;;1.20;99.90;;;;;;5098189;28;20028;-68
2022/01/08 05:45:19;;;;;;;39.75;16.58;;;1.20;99.90;;;;;;5098239;28;20073;-68
2022/01/08 05:47:46;;;;;;;36.13;16.70;;;1.20;99.90;;;;;;5080186;28;20067;-68
2022/01/08 05:50:14;;;;;;;46.03;17.55;;;1.20;99.90;;;;;;5098596;28;20024;-68
2022/01/08 05:52:42;;;;;;;37.20;17.92;;;1.20;99.90;;;;;;5080199;28;20016;-68
2022/01/08 05:55:10;;;;;;;40.13;15.80;;;1.20;99.90;;;;;;5098312;28;20346;-68
2022/01/08 05:57:37;;;;;;;39.10;18.27;;;1.20;99.90;;;;;;5080206;28;20020;-68
2022/01/08 06:00:07;;;;;;;52.80;17.48;;;1.20;99.90;;;;;;5098992;28;20054;-68
2022/01/08 06:02:35;;;;;;;41.15;16.75;;;1.10;99.90;;;;;;5098829;28;20027;-68
2022/01/08 06:05:03;;;;;;;41.00;18.27;;;1.10;99.90;;;;;;5098778;28;20020;-68
2022/01/08 06:07:30;;;;;;;33.40;15.75;;;1.10;99.90;;;;;;5080867;28;20047;-68
2022/01/08 06:09:58;;;;;;;45.95;17.75;;;1.10;99.90;;;;;;5098679;28;20024;-68
2022/01/08 06:12:25;;;;;;;41.88;17.77;;;1.10;99.90;;;;;;5099225;28;20028;-68
2022/01/08 06:14:52;;;;;;;39.88;17.75;;;1.10;99.90;;;;;;5098881;28;20046;-68
2022/01/08 06:17:20;;;;;;;37.35;16.90;;;1.10;99.90;;;;;;5098785;28;20312;-68
2022/01/08 06:19:48;;;;;;;43.47;17.27;;;1.10;99.90;;;;;;5098011;28;20023;-68
2022/01/08 06:22:16;;;;;;;33.53;15.30;;;1.00;99.90;;;;;;5079561;28;20438;-68
2022/01/08 06:24:43;;;;;;;44.05;18.65;;;1.10;99.90;;;;;;5097462;28;20024;-68
2022/01/08 06:27:10;;;;;;;48.58;20.90;;;1.10;99.90;;;;;;5079595;28;20025;-68
2022/01/08 06:29:37;;;;;;;42.10;15.82;;;1.10;99.90;;;;;;5079470;28;20020;-68
2022/01/08 06:32:05;;;;;;;41.40;18.33;;;1.10;99.90;;;;;;5097117;28;20024;-68
2022/01/08 06:34:32;;;;;;;46.75;17.92;;;1.10;99.90;;;;;;5097293;28;20020;-68
2022/01/08 06:37:00;;;;;;;46.80;21.25;;;1.10;99.90;;;;;;5097808;28;20024;-68
2022/01/08 06:39:27;;;;;;;43.03;19.80;;;1.10;99.90;;;;;;5079260;28;20438;-68
2022/01/08 06:41:54;;;;;;;49.63;21.27;;;1.10;99.90;;;;;;5079514;28;20050;-68
2022/01/08 06:44:21;;;;;;;50.20;19.33;;;1.10;99.90;;;;;;5098577;28;20324;-68
2022/01/08 06:46:49;;;;;;;48.75;21.02;;;1.10;99.90;;;;;;5098163;28;20112;-68
2022/01/08 06:49:16;;;;;;;49.65;20.65;;;1.10;99.90;;;;;;5097865;28;20074;-67
2022/01/08 06:51:44;;;;;;;45.58;18.27;;;1.10;99.90;;;;;;5098069;28;20024;-69
2022/01/08 06:54:11;;;;;;;47.65;19.02;;;1.10;99.90;;;;;;5098346;28;20024;-68
2022/01/08 06:56:38;;;;;;;50.30;17.63;;;1.20;99.90;;;;;;5098067;28;20297;-69
2022/01/08 06:59:06;;;;;;;42.72;17.15;;;1.20;99.90;;;;;;5063265;28;20111;-69
2022/01/08 07:01:33;;;;;;;44.42;18.05;;;1.20;99.90;;;;;;5079756;28;20110;-69
2022/01/08 07:04:01;;;;;;;48.85;19.63;;;1.20;99.90;;;;;;5062436;28;20024;-69
2022/01/08 07:06:30;;;;;;;43.28;19.05;;;1.20;99.90;;;;;;5078824;28;20059;-70
2022/01/08 07:08:57;;;;;;;52.38;19.45;;;1.20;99.90;;;;;;5097108;28;20032;-70
2022/01/08 07:11:25;;;;;;;45.50;17.80;;;1.20;99.90;;;;;;5096707;28;20103;-69
2022/01/08 07:13:52;;;;;;;45.58;19.98;;;1.30;99.90;;;;;;5096713;28;20099;-69
2022/01/08 07:16:19;;;;;;;52.10;18.13;;;1.30;99.90;;;;;;5075601;28;20044;-69
2022/01/08 07:18:46;;;;;;;49.13;19.65;;;1.20;99.90;;;;;;5076494;28;20087;-70
2022/01/08 07:21:14;;;;;;;42.58;18.08;;;1.30;99.90;;;;;;5075564;28;20021;-70
2022/01/08 07:23:41;;;;;;;42.85;18.23;;;1.30;99.90;;;;;;5076973;28;20293;-69
2022/01/08 07:26:08;;;;;;;48.65;19.48;;;1.30;99.90;;;;;;5077907;28;20401;-69
2022/01/08 07:28:38;;;;;;;49.38;18.75;;;1.30;99.90;;;;;;5077373;28;20071;-69
2022/01/08 07:31:05;;;;;;;43.13;19.48;;;1.30;99.90;;;;;;5077356;28;20031;-69
2022/01/08 07:33:32;;;;;;;37.90;16.83;;;1.30;99.90;;;;;;5078318;28;20297;-71
2022/01/08 07:36:00;;;;;;;44.78;18.52;;;1.30;99.90;;;;;;5077280;28;20024;-70
2022/01/08 07:38:28;;;;;;;50.63;20.92;;;1.30;99.90;;;;;;5077205;28;20098;-70
2022/01/08 07:40:55;;;;;;;46.42;19.27;;;1.20;99.90;;;;;;5077667;28;20121;-69
2022/01/08 07:43:23;;;;;;;48.25;20.77;;;1.20;99.90;;;;;;5079291;28;20103;-70
2022/01/08 07:45:50;;;;;;;52.55;20.23;;;1.20;99.90;;;;;;5079540;28;20089;-69
2022/01/08 07:48:17;;;;;;;43.28;18.40;;;1.20;99.90;;;;;;5079177;28;20020;-70
2022/01/08 07:50:45;;;;;;;44.03;17.77;;;1.20;99.90;;;;;;5079236;28;20024;-71
2022/01/08 07:53:12;;;;;;;53.05;19.98;;;1.20;99.90;;;;;;5079012;28;20408;-71
2022/01/08 07:55:39;;;;;;;40.35;17.42;;;1.20;99.90;;;;;;5080451;28;20024;-71
2022/01/08 07:58:06;;;;;;;38.38;16.50;;;1.20;99.90;;;;;;5080607;28;20017;-70
2022/01/08 08:00:33;;;;;;;37.97;16.75;;;1.20;99.90;;;;;;5081316;28;20336;-70
2022/01/08 08:03:01;;;;;;;40.78;17.05;;;1.20;99.90;;;;;;5080511;28;20052;-70
2022/01/08 08:05:31;;;;;;;43.40;17.20;;;1.20;99.90;;;;;;5079952;28;20028;-70
2022/01/08 08:07:59;;;;;;;45.80;19.35;;;1.20;99.90;;;;;;5080502;28;20031;-70
2022/01/08 08:10:28;;;;;;;41.47;16.52;;;1.20;99.90;;;;;;5081331;28;20020;-68
2022/01/08 08:12:56;;;;;;;47.33;19.23;;;1.20;99.90;;;;;;5080996;28;20034;-68
2022/01/08 08:15:24;;;;;;;41.55;18.83;;;1.20;99.90;;;;;;5087705;28;20117;-69
2022/01/08 08:17:53;;;;;;;42.47;17.38;;;1.20;99.90;;;;;;5100968;28;20012;-68
2022/01/08 08:20:20;;;;;;;47.63;20.05;;;1.20;99.90;;;;;;5100912;28;20334;-68
2022/01/08 08:22:47;;;;;;;47.72;19.40;;;1.20;99.90;;;;;;5100998;28;20327;-68
2022/01/08 08:25:15;;;;;;;46.83;17.42;;;1.30;99.90;;;;;;5100851;28;20074;-68
2022/01/08 08:27:43;;;;;;;44.67;17.75;;;1.20;99.90;;;;;;5081864;28;20030;-68
2022/01/08 08:30:11;;;;;;;42.25;18.63;;;1.20;99.90;;;;;;5100218;28;20378;-70
2022/01/08 08:32:39;;;;;;;45.65;17.13;;;1.20;99.90;;;;;;5099756;28;20012;-68
2022/01/08 08:35:08;;;;;;;47.13;18.10;;;1.20;99.90;;;;;;5100139;28;20046;-68
2022/01/08 08:37:37;;;;;;;45.78;19.13;;;1.30;99.90;;;;;;5100009;28;20301;-68
2022/01/08 08:40:05;;;;;;;48.72;18.75;;;1.30;99.90;;;;;;5100139;28;20023;-68
2022/01/08 08:42:32;;;;;;;45.00;18.75;;;1.30;99.90;;;;;;5100804;28;20052;-68
2022/01/08 08:45:00;;;;;;;46.15;18.15;;;1.20;99.90;;;;;;5100837;28;20024;-68
2022/01/08 08:47:28;;;;;;;50.03;19.20;;;1.30;99.90;;;;;;5082043;28;20038;-69
2022/01/08 08:49:55;;;;;;;45.35;18.23;;;1.30;99.90;;;;;;5100779;28;20024;-68
2022/01/08 08:52:23;;;;;;;44.60;16.05;;;1.30;99.90;;;;;;5100731;28;20016;-68
2022/01/08 08:54:52;;;;;;;45.30;18.95;;;1.30;99.90;;;;;;5099732;28;20020;-68
2022/01/08 08:57:19;;;;;;;48.55;18.95;;;1.30;99.90;;;;;;5100322;28;20412;-68
2022/01/08 08:59:47;;;;;;;50.17;19.13;;;1.30;99.90;;;;;;5100636;28;20028;-68
2022/01/08 09:02:14;;;;;;;40.22;16.92;;;1.40;99.90;;;;;;5082070;28;20378;-68
2022/01/08 09:04:42;;;;;;;34.10;12.05;;;1.40;99.90;;;;;;5099968;28;20434;-68
2022/01/08 09:07:09;;;;;;;37.55;16.67;;;1.40;99.90;;;;;;5100039;28;20066;-68
2022/01/08 09:09:37;;;;;;;39.13;14.95;;;1.40;99.90;;;;;;5099431;28;20024;-68
2022/01/08 09:12:05;;;;;;;32.47;15.65;;;1.50;99.90;;;;;;5098855;28;20164;-68
2022/01/08 09:14:32;;;;;;;44.47;18.67;;;1.50;99.90;;;;;;5080773;28;20026;-68
2022/01/08 09:17:04;;;;;;;44.85;16.75;;;1.50;99.90;;;;;;5079231;28;20056;-67
2022/01/08 09:19:32;;;;;;;46.15;15.77;;;1.50;99.90;;;;;;5078554;28;20081;-68
2022/01/08 09:22:01;;;;;;;38.67;15.52;;;1.60;99.90;;;;;;5060741;28;20024;-68
2022/01/08 09:24:29;;;;;;;36.10;15.32;;;1.60;99.90;;;;;;5078973;28;20470;-69
2022/01/08 09:26:56;;;;;;;36.20;14.05;;;1.70;99.90;;;;;;5078845;28;20369;-68
2022/01/08 09:29:24;;;;;;;35.33;15.07;;;1.80;99.90;;;;;;5078657;28;20412;-68
2022/01/08 09:31:52;;;;;;;41.58;16.95;;;1.80;99.90;;;;;;5079504;28;20032;-67
2022/01/08 09:34:19;;;;;;;35.17;16.08;;;1.80;99.90;;;;;;5079872;28;20040;-67
2022/01/08 09:36:47;;;;;;;46.05;16.52;;;1.80;99.90;;;;;;5079614;28;20343;-67
2022/01/08 09:39:16;;;;;;;35.15;13.82;;;1.80;99.90;;;;;;5079678;28;20039;-67
2022/01/08 09:41:44;;;;;;;31.02;12.95;;;1.80;99.90;;;;;;5079282;28;20323;-69
2022/01/08 09:44:12;;;;;;;32.58;13.43;;;1.80;99.90;;;;;;5061267;28;20032;-68
2022/01/08 09:46:40;;;;;;;43.17;13.77;;;1.90;99.90;;;;;;5061400;28;20090;-69
2022/01/08 09:49:08;;;;;;;37.58;16.08;;;1.90;99.90;;;;;;5078879;28;20441;-69
2022/01/08 09:51:36;;;;;;;33.63;13.40;;;1.90;99.90;;;;;;5060470;28;20036;-69
2022/01/08 09:54:03;;;;;;;40.60;15.77;;;1.90;99.90;;;;;;5077841;28;20024;-70
2022/01/08 09:56:32;;;;;;;28.90;12.73;;;1.90;99.90;;;;;;5078411;28;20017;-71
2022/01/08 09:59:01;;;;;;;40.35;16.10;;;1.90;99.90;;;;;;5077702;28;20090;-70
2022/01/08 10:01:31;;;;;;;41.60;17.65;;;1.90;99.90;;;;;;5060258;28;20028;-68
2022/01/08 10:03:59;;;;;;;45.55;17.08;;;2.00;99.90;;;;;;5077925;28;20320;-68
2022/01/08 10:06:29;;;;;;;42.90;16.30;;;2.00;99.90;;;;;;5078094;28;20043;-68
2022/01/08 10:08:56;;;;;;;37.63;16.85;;;2.00;99.90;;;;;;5077878;28;20316;-68
2022/01/08 10:11:25;;;;;;;45.42;17.35;;;2.00;99.90;;;;;;5077858;28;20021;-69
2022/01/08 10:14:04;;;;;;;39.47;16.17;;;2.10;99.90;;;;;;5078511;28;20313;-69
2022/01/08 10:19:29;;;;;;;37.83;16.90;;;2.10;99.90;;;;;;5098649;28;20023;-69
2022/01/08 10:21:57;;;;;;;38.30;16.85;;;2.20;99.90;;;;;;5080682;28;20028;-68
2022/01/08 10:24:27;;;;;;;37.25;17.08;;;2.20;99.90;;;;;;5080568;28;20020;-69
2022/01/08 10:27:03;;;;;;;39.53;17.98;;;2.20;99.90;;;;;;5098630;28;20020;-69
2022/01/08 10:29:31;;;;;;;48.90;15.70;;;2.30;99.90;;;;;;5098911;28;20427;-68
2022/01/08 10:31:59;;;;;;;33.78;16.77;;;2.30;99.90;;;;;;5098564;28;20372;-68
2022/01/08 10:34:29;;;;;;;41.90;17.88;;;2.30;99.90;;;;;;5097938;28;20016;-68
2022/01/08 10:36:56;;;;;;;44.55;16.98;;;2.30;99.90;;;;;;5097292;28;20420;-69
2022/01/08 10:39:36;;;;;;;57.10;23.75;;;2.30;99.90;;;;;;5097775;28;20024;-67
2022/01/08 10:42:15;;;;;;;39.65;17.60;;;2.30;99.90;;;;;;5097421;28;20020;-68
2022/01/08 10:44:44;;;;;;;47.25;18.27;;;2.40;99.90;;;;;;5097225;28;20064;-68
2022/01/08 10:47:16;;;;;;;34.83;15.35;;;2.40;99.90;;;;;;5079222;28;20024;-67
2022/01/08 10:50:00;;;;;;;37.55;17.00;;;2.40;99.90;;;;;;5096914;28;20028;-68
2022/01/08 10:52:28;;;;;;;40.58;16.02;;;2.40;99.90;;;;;;5097252;28;20055;-69
2022/01/08 10:54:58;;;;;;;34.88;15.20;;;2.50;99.90;;;;;;5097153;28;20324;-69
2022/01/08 10:57:40;;;;;;;33.90;15.18;;;2.50;99.90;;;;;;5098134;28;20098;-69
2022/01/08 11:00:11;;;;;;;34.53;14.70;;;2.60;99.90;;;;;;5080383;28;20021;-69
2022/01/08 11:02:41;;;;;;;31.10;14.45;;;2.60;99.90;;;;;;5097914;28;20048;-68
2022/01/08 11:05:09;;;;;;;27.05;12.35;;;2.60;99.90;;;;;;5098365;28;20097;-68
2022/01/08 11:07:41;;;;;;;32.08;13.45;;;2.70;99.90;;;;;;5098019;28;20016;-68
2022/01/08 11:10:15;;;;;;;33.80;13.18;;;2.70;99.90;;;;;;5098084;28;20016;-68
2022/01/08 11:12:45;;;;;;;28.23;13.10;;;2.70;99.90;;;;;;5097983;28;20047;-68
2022/01/08 11:18:00;;;;;;;28.63;13.70;;;2.70;99.90;;;;;;5096401;28;20034;-68
2022/01/08 11:20:33;;;;;;;35.70;14.13;;;2.60;99.90;;;;;;5097183;28;20024;-68
2022/01/08 11:23:02;;;;;;;32.92;14.75;;;2.70;99.90;;;;;;5096615;28;20031;-68
2022/01/08 11:25:35;;;;;;;32.00;12.48;;;2.70;99.90;;;;;;5097178;28;20412;-68
2022/01/08 11:28:11;;;;;;;32.13;13.93;;;2.80;99.90;;;;;;5096574;28;20416;-68
2022/01/08 11:30:41;;;;;;;27.42;13.60;;;2.90;99.90;;;;;;5096986;28;20111;-69
2022/01/08 11:33:15;;;;;;;32.75;13.85;;;3.00;99.90;;;;;;5096570;28;20116;-70
2022/01/08 11:35:45;;;;;;;29.63;13.73;;;3.10;99.90;;;;;;5096553;28;20048;-70
2022/01/08 11:38:14;;;;;;;32.03;12.50;;;3.10;99.90;;;;;;5096692;28;20028;-69
2022/01/08 11:40:43;;;;;;;30.08;14.13;;;3.20;99.90;;;;;;5098132;28;20024;-72
2022/01/08 11:43:16;;;;;;;24.35;12.93;;;3.20;99.90;;;;;;5097970;28;20316;-71
2022/01/08 11:46:03;;;;;;;27.50;13.68;;;3.30;99.90;;;;;;5097313;28;20114;-68
2022/01/08 11:48:37;;;;;;;26.45;12.38;;;3.30;99.90;;;;;;5097492;28;20494;-68
2022/01/08 11:51:06;;;;;;;30.35;12.82;;;3.30;99.90;;;;;;5097945;28;20311;-68
2022/01/08 11:53:55;;;;;;;26.23;12.77;;;3.40;99.90;;;;;;5097148;28;20369;-68
2022/01/08 11:56:22;;;;;;;29.13;12.35;;;3.30;99.90;;;;;;5079230;28;20020;-68
2022/01/08 11:59:30;;;;;;;27.20;10.13;;;3.40;99.90;;;;;;5097178;28;20020;-68
2022/01/08 12:02:12;;;;;;;18.40;8.60;;;3.40;99.90;;;;;;5057487;28;20032;-68
2022/01/08 12:04:49;;;;;;;24.15;9.57;;;3.30;99.90;;;;;;5096272;28;20028;-68
2022/01/08 12:07:38;;;;;;;25.10;8.32;;;3.30;99.90;;;;;;5096355;28;20020;-68
2022/01/08 12:10:19;;;;;;;18.42;8.65;;;3.30;99.90;;;;;;5096222;28;20031;-68
2022/01/08 12:12:54;;;;;;;22.30;8.68;;;3.30;99.90;;;;;;5097071;28;20078;-68
2022/01/08 12:15:45;;;;;;;21.58;8.43;;;3.30;99.90;;;;;;5074900;28;20094;-68
2022/01/08 12:18:16;;;;;;;18.65;7.05;;;3.30;99.90;;;;;;5077278;28;20041;-68
2022/01/08 12:20:52;;;;;;;20.65;7.97;;;3.40;99.90;;;;;;5077188;28;20103;-68
2022/01/08 12:23:34;;;;;;;16.85;8.23;;;3.40;99.90;;;;;;5078174;28;20319;-68
2022/01/08 12:26:12;;;;;;;16.42;6.90;;;3.40;99.90;;;;;;5077882;28;20020;-68
2022/01/08 12:28:58;;;;;;;14.20;6.75;;;3.40;99.90;;;;;;5077360;28;20029;-68
2022/01/08 12:31:49;;;;;;;14.40;6.38;;;3.40;99.90;;;;;;5082306;28;20106;-68
2022/01/08 12:34:32;;;;;;;20.33;6.00;;;3.50;99.90;;;;;;5081277;28;20062;-68
2022/01/08 12:37:10;;;;;;;12.30;6.00;;;3.60;99.90;;;;;;5081823;28;20209;-68
2022/01/08 12:39:49;;;;;;;11.60;5.85;;;3.60;99.90;;;;;;5079779;28;20029;-68
2022/01/08 12:42:26;;;;;;;10.88;5.43;;;3.70;99.90;;;;;;5078258;28;20048;-68
2022/01/08 12:45:20;;;;;;;11.80;4.60;;;3.70;99.90;;;;;;5079143;28;20107;-68
2022/01/08 12:48:14;;;;;;;10.40;5.32;;;3.80;99.90;;;;;;5080326;28;20020;-68
2022/01/08 12:50:45;;;;;;;11.52;4.13;;;3.80;99.90;;;;;;5076591;28;20056;-68
2022/01/08 12:53:22;;;;;;;12.35;4.13;;;3.80;99.90;;;;;;5079190;28;20032;-68
2022/01/08 12:55:55;;;;;;;12.43;4.40;;;3.70;99.90;;;;;;5079534;28;20028;-68
2022/01/08 12:58:45;;;;;;;9.52;3.83;;;3.70;99.90;;;;;;5079571;28;20023;-68
2022/01/08 13:01:15;;;;;;;11.60;4.80;;;3.70;99.90;;;;;;5082376;28;20017;-68
2022/01/08 13:03:44;;;;;;;19.00;4.90;;;3.70;99.90;;;;;;5079781;28;20024;-68
2022/01/08 13:06:15;;;;;;;13.38;4.47;;;3.60;99.90;;;;;;5080686;28;20029;-68
2022/01/08 13:08:44;;;;;;;12.23;4.88;;;3.50;99.90;;;;;;5079693;28;20024;-68
2022/01/08 13:11:14;;;;;;;8.73;3.45;;;3.40;99.90;;;;;;5082261;28;20036;-68
2022/01/08 13:13:45;;;;;;;18.00;4.38;;;3.40;99.90;;;;;;5080868;28;20017;-68
2022/01/08 13:16:25;;;;;;;13.30;4.47;;;3.30;99.90;;;;;;5093184;28;20059;-68